createdAt,value
2022-10-18T00:01:22.116Z,8.32
2022-10-18T00:03:50.916Z,8.98
2022-10-18T00:06:19.912Z,8.73
2022-10-18T00:08:48.705Z,8.70
2022-10-18T00:11:17.727Z,8.75
2022-10-18T00:13:48.033Z,9.02
2022-10-18T00:16:19.019Z,8.50
2022-10-18T00:18:48.957Z,8.38
2022-10-18T00:23:50.167Z,8.30
2022-10-18T00:26:21.456Z,8.10
2022-10-18T00:28:54.891Z,8.32
2022-10-18T00:31:26.036Z,7.82
2022-10-18T00:33:58.688Z,7.75
2022-10-18T00:36:29.320Z,7.35
2022-10-18T00:38:58.798Z,6.50
2022-10-18T00:41:30.390Z,6.43
2022-10-18T00:44:02.434Z,6.38
2022-10-18T00:46:33.364Z,5.18
2022-10-18T00:49:04.628Z,5.22
2022-10-18T00:51:38.791Z,4.68
2022-10-18T00:54:07.952Z,4.50
2022-10-18T00:56:37.109Z,4.05
2022-10-18T00:59:08.296Z,3.75
2022-10-18T01:01:37.622Z,3.33
2022-10-18T01:04:06.573Z,3.53
2022-10-18T01:06:44.445Z,3.90
2022-10-18T01:09:23.738Z,3.65
2022-10-18T01:12:16.599Z,3.10
2022-10-18T01:14:54.055Z,3.20
2022-10-18T01:17:28.553Z,3.30
2022-10-18T01:20:36.137Z,2.90
2022-10-18T01:23:09.807Z,2.92
2022-10-18T01:25:51.547Z,2.47
2022-10-18T01:28:46.658Z,2.55
2022-10-18T01:31:21.233Z,2.72
2022-10-18T01:33:53.350Z,2.67
2022-10-18T01:36:28.321Z,2.60
2022-10-18T01:39:01.486Z,2.88
2022-10-18T01:41:31.116Z,2.63
2022-10-18T01:44:03.024Z,2.50
2022-10-18T01:46:34.400Z,2.47
2022-10-18T01:49:03.601Z,2.50
2022-10-18T01:51:33.756Z,2.03
2022-10-18T01:54:03.122Z,2.25
2022-10-18T01:56:42.074Z,2.40
2022-10-18T01:59:27.336Z,2.33
2022-10-18T02:02:07.755Z,2.60
2022-10-18T02:04:45.445Z,2.33
2022-10-18T02:07:24.538Z,2.38
2022-10-18T02:10:02.272Z,2.60
2022-10-18T02:12:33.218Z,2.35
2022-10-18T02:15:04.096Z,2.50
2022-10-18T02:17:34.534Z,2.72
2022-10-18T02:20:05.549Z,2.50
2022-10-18T02:22:36.510Z,2.40
2022-10-18T02:25:10.778Z,2.50
2022-10-18T02:27:40.443Z,2.50
2022-10-18T02:30:10.929Z,2.30
2022-10-18T02:32:47.965Z,2.50
2022-10-18T02:35:24.407Z,2.40
2022-10-18T02:37:55.259Z,2.40
2022-10-18T02:40:24.476Z,2.40
2022-10-18T02:42:56.898Z,2.22
2022-10-18T02:45:26.577Z,2.20
2022-10-18T02:47:56.816Z,2.33
2022-10-18T02:50:25.846Z,2.08
2022-10-18T02:52:54.714Z,2.13
2022-10-18T02:55:23.791Z,2.00
2022-10-18T02:57:52.664Z,2.20
2022-10-18T03:00:21.839Z,1.95
2022-10-18T03:02:51.087Z,1.83
2022-10-18T03:05:21.531Z,2.00
2022-10-18T03:07:50.415Z,1.90
2022-10-18T03:10:19.575Z,1.50
2022-10-18T03:12:48.459Z,1.70
2022-10-18T03:15:17.551Z,1.98
2022-10-18T03:17:46.467Z,9.63
2022-10-18T03:20:15.530Z,17.70
2022-10-18T03:22:45.694Z,32.08
2022-10-18T03:25:14.844Z,50.08
2022-10-18T03:27:43.657Z,81.03
2022-10-18T03:30:13.791Z,81.00
2022-10-18T03:32:42.703Z,16.52
2022-10-18T03:35:12.285Z,15.73
2022-10-18T03:37:41.201Z,9.80
2022-10-18T03:40:12.533Z,9.07
2022-10-18T03:42:41.376Z,7.45
2022-10-18T03:45:11.098Z,3.80
2022-10-18T03:47:39.992Z,4.40
2022-10-18T03:50:09.713Z,5.50
2022-10-18T03:52:38.610Z,5.00
2022-10-18T03:55:10.208Z,9.27
2022-10-18T03:57:39.060Z,7.70
2022-10-18T04:00:09.393Z,7.57
2022-10-18T04:02:41.271Z,3.47
2022-10-18T04:05:10.951Z,6.13
2022-10-18T04:07:39.878Z,5.88
2022-10-18T04:10:11.035Z,5.67
2022-10-18T04:12:40.064Z,4.43
2022-10-18T04:15:10.249Z,2.10
2022-10-18T04:17:39.145Z,2.17
2022-10-18T04:20:09.249Z,2.00
2022-10-18T04:22:38.096Z,2.38
2022-10-18T04:25:07.769Z,2.50
2022-10-18T04:27:38.210Z,2.58
2022-10-18T04:30:08.375Z,2.47
2022-10-18T04:32:37.224Z,2.28
2022-10-18T04:35:07.389Z,3.20
2022-10-18T04:37:36.348Z,2.92
2022-10-18T04:40:06.386Z,12.25
2022-10-18T04:42:35.234Z,4.05
2022-10-18T04:45:06.485Z,2.80
2022-10-18T04:47:35.572Z,2.22
2022-10-18T04:50:05.872Z,3.10
2022-10-18T04:52:34.994Z,9.57
2022-10-18T04:55:04.040Z,17.55
2022-10-18T04:57:33.157Z,7.35
2022-10-18T05:00:02.496Z,6.57
2022-10-18T05:02:32.961Z,4.03
2022-10-18T05:05:02.257Z,2.60
2022-10-18T05:07:31.482Z,2.70
2022-10-18T05:10:00.502Z,2.45
2022-10-18T05:12:29.699Z,2.65
2022-10-18T05:14:58.927Z,2.55
2022-10-18T05:17:27.812Z,2.13
2022-10-18T05:19:58.196Z,2.90
2022-10-18T05:24:55.889Z,2.75
2022-10-18T05:27:24.772Z,2.60
2022-10-18T05:29:53.780Z,2.88
2022-10-18T05:32:22.726Z,2.60
2022-10-18T05:34:51.790Z,2.65
2022-10-18T05:37:26.017Z,2.67
2022-10-18T05:39:57.266Z,2.33
2022-10-18T05:42:26.295Z,2.28
2022-10-18T05:44:55.307Z,2.77
2022-10-18T05:47:24.163Z,2.90
2022-10-18T05:49:53.246Z,2.65
2022-10-18T05:52:23.495Z,2.85
2022-10-18T05:54:52.560Z,2.80
2022-10-18T05:57:21.413Z,2.75
2022-10-18T05:59:50.432Z,2.45
2022-10-18T06:02:19.402Z,2.45
2022-10-18T06:04:48.520Z,2.90
2022-10-18T06:07:17.905Z,2.70
2022-10-18T06:09:48.412Z,2.88
2022-10-18T06:12:17.246Z,2.80
2022-10-18T06:14:46.320Z,2.42
2022-10-18T06:17:15.194Z,3.13
2022-10-18T06:19:44.505Z,3.20
2022-10-18T06:22:13.360Z,2.63
2022-10-18T06:24:42.369Z,2.95
2022-10-18T06:27:12.574Z,2.85
2022-10-18T06:29:41.915Z,2.72
2022-10-18T06:32:10.933Z,3.08
2022-10-18T06:34:40.028Z,2.70
2022-10-18T06:37:09.393Z,2.92
2022-10-18T06:39:38.385Z,3.35
2022-10-18T06:42:07.181Z,3.05
2022-10-18T06:44:37.862Z,3.40
2022-10-18T06:47:08.225Z,2.88
2022-10-18T06:49:37.321Z,3.38
2022-10-18T06:52:07.316Z,3.25
2022-10-18T06:57:05.141Z,3.53
2022-10-18T06:59:34.224Z,3.28
2022-10-18T07:02:04.468Z,3.10
2022-10-18T07:04:33.591Z,3.40
2022-10-18T07:07:02.439Z,3.30
2022-10-18T07:09:31.684Z,3.10
2022-10-18T07:12:00.540Z,3.17
2022-10-18T07:14:29.704Z,3.10
2022-10-18T07:17:01.301Z,3.22
2022-10-18T07:19:31.684Z,3.97
2022-10-18T07:24:29.471Z,3.67
2022-10-18T07:26:58.318Z,3.47
2022-10-18T07:29:27.386Z,3.08
2022-10-18T07:31:56.283Z,3.55
2022-10-18T07:34:25.442Z,2.67
2022-10-18T07:36:55.641Z,2.80
2022-10-18T07:39:25.109Z,3.40
2022-10-18T07:41:54.246Z,2.90
2022-10-18T07:44:23.530Z,2.38
2022-10-18T07:46:52.359Z,2.80
2022-10-18T07:49:21.379Z,3.20
2022-10-18T07:51:50.576Z,3.20
2022-10-18T07:54:22.364Z,3.72
2022-10-18T07:56:51.198Z,3.80
2022-10-18T07:59:20.207Z,3.20
2022-10-18T08:01:49.068Z,3.30
2022-10-18T08:04:18.264Z,3.22
2022-10-18T08:06:47.715Z,2.95
2022-10-18T08:09:16.812Z,2.90
2022-10-18T08:11:47.072Z,2.97
2022-10-18T08:14:16.342Z,3.35
2022-10-18T08:16:45.186Z,2.85
2022-10-18T08:19:14.214Z,3.08
2022-10-18T08:21:43.157Z,3.20
2022-10-18T08:24:12.209Z,3.22
2022-10-18T08:26:41.108Z,2.60
2022-10-18T08:29:22.428Z,2.67
2022-10-18T08:31:53.701Z,2.50
2022-10-18T08:34:22.775Z,2.75
2022-10-18T08:36:51.607Z,2.42
2022-10-18T08:39:20.680Z,2.80
2022-10-18T08:42:15.335Z,2.67
2022-10-18T08:44:48.127Z,2.95
2022-10-18T08:47:19.922Z,2.80
2022-10-18T08:49:52.813Z,2.42
2022-10-18T08:52:31.996Z,2.50
2022-10-18T08:55:05.200Z,2.55
2022-10-18T08:57:34.543Z,3.13
2022-10-18T09:00:16.083Z,2.70
2022-10-18T09:03:08.386Z,2.25
2022-10-18T09:05:47.735Z,2.10
2022-10-18T09:08:47.674Z,3.08
2022-10-18T09:14:25.752Z,3.15
2022-10-18T09:17:06.789Z,2.45
2022-10-18T09:19:55.034Z,2.13
2022-10-18T09:22:34.023Z,2.22
2022-10-18T09:25:12.548Z,2.10
2022-10-18T09:27:52.237Z,2.03
2022-10-18T09:30:30.537Z,1.98
2022-10-18T09:33:08.376Z,1.85
2022-10-18T09:35:45.435Z,2.00
2022-10-18T09:38:20.727Z,1.83
2022-10-18T09:40:55.306Z,1.90
2022-10-18T09:43:27.643Z,1.80
2022-10-18T09:45:57.767Z,1.98
2022-10-18T09:48:32.250Z,1.75
2022-10-18T09:51:09.083Z,1.60
2022-10-18T09:53:43.914Z,1.85
2022-10-18T09:56:17.343Z,1.60
2022-10-18T09:58:48.751Z,1.80
2022-10-18T10:01:21.733Z,1.70
2022-10-18T10:03:52.460Z,1.60
2022-10-18T10:06:29.175Z,1.40
2022-10-18T10:09:06.204Z,1.58
2022-10-18T10:11:37.857Z,1.40
2022-10-18T10:14:13.794Z,1.48
2022-10-18T10:16:50.851Z,1.33
2022-10-18T10:19:27.945Z,1.90
2022-10-18T10:22:01.116Z,1.70
2022-10-18T10:24:47.729Z,1.63
2022-10-18T10:27:21.431Z,1.55
2022-10-18T10:29:56.555Z,1.48
2022-10-18T10:32:28.713Z,1.48
2022-10-18T10:34:59.779Z,1.95
2022-10-18T10:37:35.264Z,1.88
2022-10-18T10:40:18.756Z,1.52
2022-10-18T10:43:33.100Z,1.70
2022-10-18T10:46:08.737Z,1.55
2022-10-18T10:48:48.197Z,1.65
2022-10-18T10:51:30.009Z,1.67
2022-10-18T10:54:04.970Z,1.80
2022-10-18T10:56:36.950Z,1.90
2022-10-18T10:59:14.632Z,1.70
2022-10-18T11:01:44.071Z,1.70
2022-10-18T11:04:26.321Z,1.80
2022-10-18T11:07:13.552Z,1.30
2022-10-18T11:09:58.365Z,1.25
2022-10-18T11:12:34.597Z,1.42
2022-10-18T11:15:22.128Z,1.30
2022-10-18T11:18:04.103Z,1.77
2022-10-18T11:20:38.088Z,1.67
2022-10-18T11:23:11.948Z,2.25
2022-10-18T11:26:02.986Z,1.70
2022-10-18T11:28:47.101Z,3.13
2022-10-18T11:31:20.605Z,1.77
2022-10-18T11:34:16.288Z,2.05
2022-10-18T11:36:56.367Z,1.77
2022-10-18T11:39:51.014Z,1.40
2022-10-18T11:42:27.953Z,1.92
2022-10-18T11:45:08.048Z,1.63
2022-10-18T11:47:45.773Z,2.00
2022-10-18T11:50:26.689Z,1.77
2022-10-18T11:53:05.618Z,1.73
2022-10-18T11:55:47.954Z,1.85
2022-10-18T11:58:40.911Z,1.55
2022-10-18T12:01:24.738Z,2.38
2022-10-18T12:04:03.787Z,2.03
2022-10-18T12:06:37.602Z,1.75
2022-10-18T12:09:15.692Z,1.90
2022-10-18T12:11:55.806Z,1.60
2022-10-18T12:17:35.908Z,1.60
2022-10-18T12:19:53.102Z,1.55
2022-10-18T12:22:27.058Z,1.67
2022-10-18T12:24:55.938Z,1.42
2022-10-18T12:27:38.986Z,1.90
2022-10-18T12:30:15.447Z,1.95
2022-10-18T12:33:02.106Z,2.00
2022-10-18T12:35:45.849Z,2.00
2022-10-18T12:38:22.477Z,2.20
2022-10-18T12:40:53.760Z,2.25
2022-10-18T12:43:27.689Z,2.72
2022-10-18T12:45:59.130Z,2.45
2022-10-18T12:48:32.989Z,1.90
2022-10-18T12:51:14.109Z,2.25
2022-10-18T12:53:45.205Z,2.70
2022-10-18T12:56:41.883Z,2.03
2022-10-18T12:59:50.964Z,2.20
2022-10-18T13:02:30.593Z,2.53
2022-10-18T13:05:02.300Z,2.13
2022-10-18T13:07:41.051Z,2.65
2022-10-18T13:10:40.626Z,2.78
2022-10-18T13:14:15.728Z,2.03
2022-10-18T13:16:50.575Z,2.42
2022-10-18T13:19:42.649Z,2.78
2022-10-18T13:22:39.450Z,2.50
2022-10-18T13:25:17.963Z,3.00
2022-10-18T13:27:57.370Z,2.75
2022-10-18T13:30:54.511Z,2.83
2022-10-18T13:33:38.929Z,2.50
2022-10-18T13:36:27.800Z,2.70
2022-10-18T13:39:06.001Z,3.10
2022-10-18T13:42:06.970Z,2.80
2022-10-18T13:44:39.994Z,2.30
2022-10-18T13:47:14.979Z,2.85
2022-10-18T13:50:19.925Z,3.00
2022-10-18T13:53:30.431Z,6.35
2022-10-18T13:56:47.024Z,5.32
2022-10-18T14:02:51.112Z,2.25
2022-10-18T14:05:46.887Z,2.20
2022-10-18T14:08:20.985Z,2.38
2022-10-18T14:11:02.513Z,3.10
2022-10-18T14:13:39.985Z,2.88
2022-10-18T14:16:24.928Z,3.40
2022-10-18T14:18:58.144Z,2.33
2022-10-18T14:21:45.479Z,3.03
2022-10-18T14:24:34.131Z,2.50
2022-10-18T14:27:22.617Z,3.13
2022-10-18T14:33:00.427Z,3.88
2022-10-18T14:35:33.304Z,5.13
2022-10-18T14:38:03.428Z,5.05
2022-10-18T14:40:37.915Z,5.85
2022-10-18T14:43:12.283Z,4.05
2022-10-18T14:45:42.271Z,3.95
2022-10-18T14:48:17.159Z,3.63
2022-10-18T14:50:50.421Z,3.40
2022-10-18T14:53:22.118Z,4.13
2022-10-18T14:56:01.121Z,3.33
2022-10-18T14:58:30.267Z,3.40
2022-10-18T15:01:00.036Z,10.05
2022-10-18T15:03:29.294Z,7.53
2022-10-18T15:06:00.951Z,14.43
2022-10-18T15:08:36.661Z,33.90
2022-10-18T15:11:11.835Z,7.40
2022-10-18T15:13:49.208Z,3.72
2022-10-18T15:16:19.788Z,5.72
2022-10-18T15:19:02.820Z,2.90
2022-10-18T15:21:32.217Z,2.72
2022-10-18T15:24:20.584Z,2.80
2022-10-18T15:26:52.841Z,3.05
2022-10-18T15:29:24.785Z,2.97
2022-10-18T15:31:54.535Z,3.30
2022-10-18T15:34:25.852Z,3.53
2022-10-18T15:36:56.690Z,3.10
2022-10-18T15:39:27.487Z,3.20
2022-10-18T15:41:59.880Z,3.03
2022-10-18T15:44:32.125Z,3.80
2022-10-18T15:47:20.629Z,3.78
2022-10-18T15:49:55.220Z,5.95
2022-10-18T15:52:38.857Z,6.32
2022-10-18T15:55:49.747Z,2.90
2022-10-18T15:58:40.020Z,2.90
2022-10-18T16:01:17.114Z,2.60
2022-10-18T16:03:48.428Z,3.15
2022-10-18T16:06:18.544Z,2.78
2022-10-18T16:08:49.689Z,3.50
2022-10-18T16:11:20.867Z,3.85
2022-10-18T16:13:54.018Z,3.70
2022-10-18T16:16:27.440Z,3.85
2022-10-18T16:18:56.986Z,4.28
2022-10-18T16:21:28.017Z,4.65
2022-10-18T16:23:57.716Z,4.70
2022-10-18T16:26:28.048Z,4.95
2022-10-18T16:28:59.843Z,3.80
2022-10-18T16:31:30.713Z,3.95
2022-10-18T16:34:00.543Z,4.47
2022-10-18T16:36:31.295Z,4.45
2022-10-18T16:39:03.465Z,4.20
2022-10-18T16:41:32.411Z,3.75
2022-10-18T16:44:02.908Z,4.00
2022-10-18T16:46:33.856Z,4.20
2022-10-18T16:49:10.607Z,4.35
2022-10-18T16:51:39.417Z,4.43
2022-10-18T16:54:09.049Z,4.07
2022-10-18T16:56:38.126Z,4.53
2022-10-18T16:59:09.092Z,4.50
2022-10-18T17:01:38.389Z,4.15
2022-10-18T17:04:07.641Z,4.13
2022-10-18T17:06:36.496Z,4.10
2022-10-18T17:09:05.885Z,4.07
2022-10-18T17:11:35.130Z,4.70
2022-10-18T17:14:04.394Z,4.30
2022-10-18T17:16:36.931Z,4.13
2022-10-18T17:19:08.451Z,3.60
2022-10-18T17:21:37.425Z,3.95
2022-10-18T17:24:06.934Z,4.40
2022-10-18T17:26:36.207Z,5.73
2022-10-18T17:29:08.498Z,4.77
2022-10-18T17:31:38.875Z,4.35
2022-10-18T17:34:08.981Z,4.50
2022-10-18T17:36:37.875Z,3.50
2022-10-18T17:39:07.278Z,4.53
2022-10-18T17:41:36.117Z,3.50
2022-10-18T17:44:05.953Z,3.53
2022-10-18T17:46:34.811Z,4.13
2022-10-18T17:49:05.301Z,3.53
2022-10-18T17:51:34.184Z,3.35
2022-10-18T17:54:04.935Z,3.83
2022-10-18T17:56:35.887Z,4.13
2022-10-18T17:59:05.052Z,3.70
2022-10-18T18:01:33.907Z,3.90
2022-10-18T18:04:05.431Z,4.32
2022-10-18T18:06:36.374Z,4.03
2022-10-18T18:09:08.068Z,3.90
2022-10-18T18:11:38.602Z,3.80
2022-10-18T18:14:09.666Z,3.83
2022-10-18T18:16:40.556Z,3.78
2022-10-18T18:19:11.547Z,4.05
2022-10-18T18:21:41.532Z,3.42
2022-10-18T18:24:11.325Z,4.50
2022-10-18T18:26:41.479Z,4.25
2022-10-18T18:29:12.587Z,3.65
2022-10-18T18:31:44.054Z,3.83
2022-10-18T18:34:14.604Z,3.92
2022-10-18T18:36:43.885Z,3.88
2022-10-18T18:39:21.231Z,3.72
2022-10-18T18:41:51.660Z,4.43
2022-10-18T18:44:21.621Z,4.18
2022-10-18T18:46:50.829Z,4.10
2022-10-18T18:49:21.361Z,3.47
2022-10-18T18:51:50.233Z,3.78
2022-10-18T18:54:19.394Z,3.97
2022-10-18T18:56:48.374Z,3.97
2022-10-18T18:59:18.410Z,3.90
2022-10-18T19:01:47.486Z,5.28
2022-10-18T19:04:17.041Z,5.40
2022-10-18T19:06:47.607Z,5.33
2022-10-18T19:09:22.001Z,4.18
2022-10-18T19:11:52.975Z,6.28
2022-10-18T19:14:24.170Z,5.15
2022-10-18T19:16:55.319Z,4.80
2022-10-18T19:19:26.257Z,7.88
2022-10-18T19:21:58.102Z,5.88
2022-10-18T19:24:30.285Z,5.25
2022-10-18T19:27:01.374Z,4.15
2022-10-18T19:29:32.953Z,4.50
2022-10-18T19:32:03.684Z,4.55
2022-10-18T19:34:34.836Z,3.97
2022-10-18T19:37:05.348Z,3.50
2022-10-18T19:39:35.883Z,3.28
2022-10-18T19:42:07.132Z,3.60
2022-10-18T19:44:37.968Z,3.88
2022-10-18T19:47:08.615Z,3.92
2022-10-18T19:49:37.858Z,4.20
2022-10-18T19:52:08.130Z,4.13
2022-10-18T19:54:37.260Z,4.53
2022-10-18T19:57:06.911Z,5.68
2022-10-18T19:59:36.500Z,5.47
2022-10-18T20:02:05.639Z,4.63
2022-10-18T20:04:35.211Z,4.67
2022-10-18T20:07:50.356Z,4.10
2022-10-18T20:10:52.807Z,8.02
2022-10-18T20:13:48.407Z,6.28
2022-10-18T20:16:26.957Z,3.60
2022-10-18T20:18:58.816Z,3.67
2022-10-18T20:21:29.341Z,3.05
2022-10-18T20:23:59.563Z,3.90
2022-10-18T20:26:28.735Z,3.50
2022-10-18T20:29:00.043Z,3.78
2022-10-18T20:31:31.024Z,4.30
2022-10-18T20:34:01.549Z,4.13
2022-10-18T20:36:31.991Z,4.68
2022-10-18T20:41:33.776Z,4.00
2022-10-18T20:44:05.265Z,3.45
2022-10-18T20:46:36.575Z,3.28
2022-10-18T20:49:06.575Z,3.30
2022-10-18T20:54:07.673Z,3.70
2022-10-18T20:56:38.683Z,3.53
2022-10-18T20:59:10.012Z,3.65
2022-10-18T21:01:40.717Z,3.63
2022-10-18T21:04:11.058Z,3.42
2022-10-18T21:06:42.823Z,3.90
2022-10-18T21:09:15.418Z,3.47
2022-10-18T21:11:47.563Z,3.25
2022-10-18T21:14:18.648Z,3.58
2022-10-18T21:16:48.637Z,3.50
2022-10-18T21:19:19.428Z,3.30
2022-10-18T21:21:51.257Z,3.03
2022-10-18T21:24:22.786Z,3.55
2022-10-18T21:26:51.963Z,3.63
2022-10-18T21:29:22.718Z,3.60
2022-10-18T21:31:55.094Z,3.58
2022-10-18T21:34:24.223Z,3.88
2022-10-18T21:36:53.366Z,2.93
2022-10-18T21:39:25.233Z,3.20
2022-10-18T21:41:54.436Z,2.80
2022-10-18T21:44:23.668Z,2.95
2022-10-18T21:46:52.888Z,2.83
2022-10-18T21:49:24.923Z,2.63
2022-10-18T21:51:54.135Z,3.13
2022-10-18T21:54:24.525Z,2.88
2022-10-18T21:56:53.769Z,2.63
2022-10-18T21:59:22.974Z,2.90
2022-10-18T22:01:53.988Z,2.75
2022-10-18T22:04:24.875Z,2.88
2022-10-18T22:06:54.206Z,3.50
2022-10-18T22:09:24.629Z,2.90
2022-10-18T22:11:55.020Z,3.38
2022-10-18T22:16:53.989Z,3.23
2022-10-18T22:19:23.016Z,3.13
2022-10-18T22:21:52.267Z,2.85
2022-10-18T22:24:21.317Z,2.30
2022-10-18T22:26:52.208Z,2.97
2022-10-18T22:29:22.761Z,2.95
2022-10-18T22:31:53.859Z,2.78
2022-10-18T22:34:24.851Z,2.63
2022-10-18T22:36:54.413Z,2.33
2022-10-18T22:39:24.574Z,2.78
2022-10-18T22:41:56.583Z,3.17
2022-10-18T22:44:26.276Z,2.50
2022-10-18T22:46:55.481Z,2.75
2022-10-18T22:49:24.436Z,2.50
2022-10-18T22:51:53.710Z,2.20
2022-10-18T22:54:22.727Z,1.95
2022-10-18T22:56:51.926Z,2.07
2022-10-18T22:59:22.380Z,2.00
2022-10-18T23:01:51.563Z,1.98
2022-10-18T23:04:20.691Z,1.80
2022-10-18T23:06:50.242Z,1.73
2022-10-18T23:09:19.254Z,1.45
2022-10-18T23:11:50.869Z,1.58
2022-10-18T23:14:21.743Z,1.48
2022-10-18T23:16:50.940Z,1.73
2022-10-18T23:19:19.995Z,1.52
2022-10-18T23:21:49.231Z,1.77
2022-10-18T23:24:18.246Z,1.67
2022-10-18T23:26:47.421Z,1.60
2022-10-18T23:29:16.404Z,1.77
2022-10-18T23:31:46.983Z,1.10
2022-10-18T23:34:16.161Z,1.60
2022-10-18T23:36:45.344Z,1.63
2022-10-18T23:39:14.342Z,1.60
2022-10-18T23:41:43.508Z,1.35
2022-10-18T23:44:12.515Z,1.55
2022-10-18T23:46:41.719Z,1.42
2022-10-18T23:49:12.804Z,1.30
2022-10-18T23:51:42.067Z,1.10
2022-10-18T23:54:11.061Z,1.30
2022-10-18T23:56:40.275Z,1.00
2022-10-18T23:59:09.275Z,1.08
